sensor_id;sensor_type;location;lat;lon;timestamp;P1;durP1;ratioP1;P2;durP2;ratioP2
11078;SDS011;5592;49.234;7.268;2023-03-03T00:01:10;58.67;;;26.80;;
11078;SDS011;5592;49.234;7.268;2023-03-03T00:03:38;58.00;;;25.57;;
11078;SDS011;5592;49.234;7.268;2023-03-03T00:06:04;65.53;;;27.87;;
11078;SDS011;5592;49.234;7.268;2023-03-03T00:08:32;60.87;;;29.30;;
11078;SDS011;5592;49.234;7.268;2023-03-03T00:10:58;63.20;;;27.07;;
11078;SDS011;5592;49.234;7.268;2023-03-03T00:13:25;53.13;;;26.17;;
11078;SDS011;5592;49.234;7.268;2023-03-03T00:15:52;59.07;;;27.47;;
11078;SDS011;5592;49.234;7.268;2023-03-03T00:18:25;59.77;;;27.03;;
11078;SDS011;5592;49.234;7.268;2023-03-03T00:21:00;59.77;;;26.07;;
11078;SDS011;5592;49.234;7.268;2023-03-03T00:23:38;50.00;;;23.97;;
11078;SDS011;5592;49.234;7.268;2023-03-03T00:26:19;56.90;;;26.00;;
11078;SDS011;5592;49.234;7.268;2023-03-03T00:31:58;52.00;;;24.13;;
11078;SDS011;5592;49.234;7.268;2023-03-03T00:34:42;62.77;;;27.10;;
11078;SDS011;5592;49.234;7.268;2023-03-03T00:39:46;67.33;;;27.47;;
11078;SDS011;5592;49.234;7.268;2023-03-03T00:42:15;58.83;;;25.93;;
11078;SDS011;5592;49.234;7.268;2023-03-03T00:44:43;55.07;;;25.67;;
11078;SDS011;5592;49.234;7.268;2023-03-03T00:49:51;60.80;;;25.10;;
11078;SDS011;5592;49.234;7.268;2023-03-03T00:52:38;63.03;;;27.20;;
11078;SDS011;5592;49.234;7.268;2023-03-03T00:55:09;59.53;;;25.33;;
11078;SDS011;5592;49.234;7.268;2023-03-03T00:57:36;59.17;;;26.70;;
11078;SDS011;5592;49.234;7.268;2023-03-03T01:00:01;62.23;;;27.30;;
11078;SDS011;5592;49.234;7.268;2023-03-03T01:02:28;57.23;;;24.47;;
11078;SDS011;5592;49.234;7.268;2023-03-03T01:04:54;57.93;;;26.17;;
11078;SDS011;5592;49.234;7.268;2023-03-03T01:07:22;58.57;;;25.63;;
11078;SDS011;5592;49.234;7.268;2023-03-03T01:09:48;56.20;;;26.17;;
11078;SDS011;5592;49.234;7.268;2023-03-03T01:12:13;51.20;;;26.33;;
11078;SDS011;5592;49.234;7.268;2023-03-03T01:14:40;63.40;;;25.60;;
11078;SDS011;5592;49.234;7.268;2023-03-03T01:17:06;54.83;;;24.70;;
11078;SDS011;5592;49.234;7.268;2023-03-03T01:19:32;48.60;;;23.83;;
11078;SDS011;5592;49.234;7.268;2023-03-03T01:21:58;53.20;;;24.00;;
11078;SDS011;5592;49.234;7.268;2023-03-03T01:24:24;63.07;;;25.57;;
11078;SDS011;5592;49.234;7.268;2023-03-03T01:26:49;71.83;;;26.40;;
11078;SDS011;5592;49.234;7.268;2023-03-03T01:29:15;61.90;;;24.90;;
11078;SDS011;5592;49.234;7.268;2023-03-03T01:31:40;62.07;;;26.10;;
11078;SDS011;5592;49.234;7.268;2023-03-03T01:34:06;61.00;;;27.40;;
11078;SDS011;5592;49.234;7.268;2023-03-03T01:36:32;51.33;;;25.70;;
11078;SDS011;5592;49.234;7.268;2023-03-03T01:38:58;64.33;;;24.90;;
11078;SDS011;5592;49.234;7.268;2023-03-03T01:41:28;64.20;;;28.20;;
11078;SDS011;5592;49.234;7.268;2023-03-03T01:43:57;63.53;;;25.67;;
11078;SDS011;5592;49.234;7.268;2023-03-03T01:49:24;54.33;;;24.57;;
11078;SDS011;5592;49.234;7.268;2023-03-03T01:51:56;58.83;;;26.67;;
11078;SDS011;5592;49.234;7.268;2023-03-03T01:54:35;49.43;;;24.97;;
11078;SDS011;5592;49.234;7.268;2023-03-03T01:57:10;60.63;;;27.43;;
11078;SDS011;5592;49.234;7.268;2023-03-03T01:59:46;57.73;;;25.17;;
11078;SDS011;5592;49.234;7.268;2023-03-03T02:02:15;58.87;;;25.87;;
11078;SDS011;5592;49.234;7.268;2023-03-03T02:04:41;54.97;;;25.33;;
11078;SDS011;5592;49.234;7.268;2023-03-03T02:07:07;64.30;;;28.17;;
11078;SDS011;5592;49.234;7.268;2023-03-03T02:09:56;62.77;;;26.17;;
11078;SDS011;5592;49.234;7.268;2023-03-03T02:12:33;60.73;;;25.80;;
11078;SDS011;5592;49.234;7.268;2023-03-03T02:17:42;62.60;;;27.40;;
11078;SDS011;5592;49.234;7.268;2023-03-03T02:20:11;57.63;;;24.40;;
11078;SDS011;5592;49.234;7.268;2023-03-03T02:22:49;52.03;;;23.30;;
11078;SDS011;5592;49.234;7.268;2023-03-03T02:25:21;53.33;;;25.77;;
11078;SDS011;5592;49.234;7.268;2023-03-03T02:27:55;55.00;;;25.23;;
11078;SDS011;5592;49.234;7.268;2023-03-03T02:30:22;61.60;;;26.03;;
11078;SDS011;5592;49.234;7.268;2023-03-03T02:32:48;62.20;;;25.27;;
11078;SDS011;5592;49.234;7.268;2023-03-03T02:38:16;59.60;;;26.30;;
11078;SDS011;5592;49.234;7.268;2023-03-03T02:40:58;60.27;;;26.70;;
11078;SDS011;5592;49.234;7.268;2023-03-03T02:43:42;52.03;;;24.70;;
11078;SDS011;5592;49.234;7.268;2023-03-03T02:46:22;49.10;;;22.70;;
11078;SDS011;5592;49.234;7.268;2023-03-03T02:48:48;53.37;;;24.03;;
11078;SDS011;5592;49.234;7.268;2023-03-03T02:51:13;54.77;;;27.03;;
11078;SDS011;5592;49.234;7.268;2023-03-03T02:53:39;56.07;;;25.17;;
11078;SDS011;5592;49.234;7.268;2023-03-03T02:56:05;55.30;;;25.37;;
11078;SDS011;5592;49.234;7.268;2023-03-03T02:58:36;72.17;;;27.60;;
11078;SDS011;5592;49.234;7.268;2023-03-03T03:01:02;69.67;;;26.77;;
11078;SDS011;5592;49.234;7.268;2023-03-03T03:03:28;58.70;;;26.30;;
11078;SDS011;5592;49.234;7.268;2023-03-03T03:05:54;67.00;;;26.83;;
11078;SDS011;5592;49.234;7.268;2023-03-03T03:08:20;67.27;;;26.97;;
11078;SDS011;5592;49.234;7.268;2023-03-03T03:10:46;61.97;;;26.43;;
11078;SDS011;5592;49.234;7.268;2023-03-03T03:13:11;66.80;;;26.97;;
11078;SDS011;5592;49.234;7.268;2023-03-03T03:15:37;58.83;;;26.00;;
11078;SDS011;5592;49.234;7.268;2023-03-03T03:18:03;54.70;;;26.37;;
11078;SDS011;5592;49.234;7.268;2023-03-03T03:20:28;57.80;;;25.77;;
11078;SDS011;5592;49.234;7.268;2023-03-03T03:22:54;56.87;;;25.17;;
11078;SDS011;5592;49.234;7.268;2023-03-03T03:25:23;66.27;;;27.20;;
11078;SDS011;5592;49.234;7.268;2023-03-03T03:27:48;61.77;;;25.07;;
11078;SDS011;5592;49.234;7.268;2023-03-03T03:30:14;59.77;;;25.73;;
11078;SDS011;5592;49.234;7.268;2023-03-03T03:32:40;58.03;;;25.50;;
11078;SDS011;5592;49.234;7.268;2023-03-03T03:35:05;60.63;;;26.33;;
11078;SDS011;5592;49.234;7.268;2023-03-03T03:37:32;56.70;;;25.27;;
11078;SDS011;5592;49.234;7.268;2023-03-03T03:39:57;49.60;;;23.80;;
11078;SDS011;5592;49.234;7.268;2023-03-03T03:42:26;59.30;;;24.90;;
11078;SDS011;5592;49.234;7.268;2023-03-03T03:44:51;71.77;;;26.80;;
11078;SDS011;5592;49.234;7.268;2023-03-03T03:47:17;63.70;;;27.20;;
11078;SDS011;5592;49.234;7.268;2023-03-03T03:49:42;57.47;;;24.03;;
11078;SDS011;5592;49.234;7.268;2023-03-03T03:52:08;59.47;;;25.30;;
11078;SDS011;5592;49.234;7.268;2023-03-03T03:54:33;72.47;;;26.47;;
11078;SDS011;5592;49.234;7.268;2023-03-03T03:56:59;60.53;;;25.10;;
11078;SDS011;5592;49.234;7.268;2023-03-03T03:59:25;57.33;;;25.17;;
11078;SDS011;5592;49.234;7.268;2023-03-03T04:01:50;63.93;;;23.97;;
11078;SDS011;5592;49.234;7.268;2023-03-03T04:04:16;66.57;;;25.97;;
11078;SDS011;5592;49.234;7.268;2023-03-03T04:06:42;63.80;;;24.67;;
11078;SDS011;5592;49.234;7.268;2023-03-03T04:09:13;64.17;;;26.50;;
11078;SDS011;5592;49.234;7.268;2023-03-03T04:11:39;60.43;;;25.80;;
11078;SDS011;5592;49.234;7.268;2023-03-03T04:14:05;63.30;;;25.73;;
11078;SDS011;5592;49.234;7.268;2023-03-03T04:16:31;57.27;;;26.03;;
11078;SDS011;5592;49.234;7.268;2023-03-03T04:18:57;56.80;;;24.50;;
11078;SDS011;5592;49.234;7.268;2023-03-03T04:21:22;56.07;;;24.40;;
11078;SDS011;5592;49.234;7.268;2023-03-03T04:23:49;58.57;;;26.27;;
11078;SDS011;5592;49.234;7.268;2023-03-03T04:26:14;57.13;;;24.90;;
11078;SDS011;5592;49.234;7.268;2023-03-03T04:28:40;55.90;;;23.80;;
11078;SDS011;5592;49.234;7.268;2023-03-03T04:31:06;56.17;;;24.10;;
11078;SDS011;5592;49.234;7.268;2023-03-03T04:33:32;60.97;;;24.40;;
11078;SDS011;5592;49.234;7.268;2023-03-03T04:35:57;58.67;;;23.93;;
11078;SDS011;5592;49.234;7.268;2023-03-03T04:38:23;49.73;;;25.50;;
11078;SDS011;5592;49.234;7.268;2023-03-03T04:40:49;56.77;;;24.87;;
11078;SDS011;5592;49.234;7.268;2023-03-03T04:43:14;56.23;;;24.90;;
11078;SDS011;5592;49.234;7.268;2023-03-03T04:45:40;60.47;;;25.97;;
11078;SDS011;5592;49.234;7.268;2023-03-03T04:48:06;56.43;;;24.10;;
11078;SDS011;5592;49.234;7.268;2023-03-03T04:50:32;57.07;;;24.30;;
11078;SDS011;5592;49.234;7.268;2023-03-03T04:53:00;62.27;;;24.33;;
11078;SDS011;5592;49.234;7.268;2023-03-03T04:55:29;64.63;;;26.93;;
11078;SDS011;5592;49.234;7.268;2023-03-03T04:57:55;56.23;;;23.67;;
11078;SDS011;5592;49.234;7.268;2023-03-03T05:00:21;62.60;;;24.57;;
11078;SDS011;5592;49.234;7.268;2023-03-03T05:02:47;55.23;;;22.43;;
11078;SDS011;5592;49.234;7.268;2023-03-03T05:05:12;53.87;;;22.97;;
11078;SDS011;5592;49.234;7.268;2023-03-03T05:07:39;66.07;;;26.70;;
11078;SDS011;5592;49.234;7.268;2023-03-03T05:10:07;48.13;;;21.57;;
11078;SDS011;5592;49.234;7.268;2023-03-03T05:12:33;58.77;;;24.27;;
11078;SDS011;5592;49.234;7.268;2023-03-03T05:14:59;64.13;;;25.03;;
11078;SDS011;5592;49.234;7.268;2023-03-03T05:17:25;52.57;;;25.10;;
11078;SDS011;5592;49.234;7.268;2023-03-03T05:19:51;45.67;;;22.20;;
11078;SDS011;5592;49.234;7.268;2023-03-03T05:22:16;54.60;;;23.60;;
11078;SDS011;5592;49.234;7.268;2023-03-03T05:24:42;52.93;;;22.07;;
11078;SDS011;5592;49.234;7.268;2023-03-03T05:27:08;52.23;;;22.70;;
11078;SDS011;5592;49.234;7.268;2023-03-03T05:29:33;48.00;;;21.67;;
11078;SDS011;5592;49.234;7.268;2023-03-03T05:31:59;47.53;;;21.33;;
11078;SDS011;5592;49.234;7.268;2023-03-03T05:34:25;53.40;;;22.00;;
11078;SDS011;5592;49.234;7.268;2023-03-03T05:36:51;49.10;;;21.17;;
11078;SDS011;5592;49.234;7.268;2023-03-03T05:39:17;49.03;;;23.03;;
11078;SDS011;5592;49.234;7.268;2023-03-03T05:41:42;59.73;;;23.87;;
11078;SDS011;5592;49.234;7.268;2023-03-03T05:44:08;50.63;;;22.83;;
11078;SDS011;5592;49.234;7.268;2023-03-03T05:46:34;48.97;;;22.63;;
11078;SDS011;5592;49.234;7.268;2023-03-03T05:49:00;47.83;;;23.40;;
11078;SDS011;5592;49.234;7.268;2023-03-03T05:51:25;51.10;;;23.47;;
11078;SDS011;5592;49.234;7.268;2023-03-03T05:53:51;57.47;;;22.93;;
11078;SDS011;5592;49.234;7.268;2023-03-03T05:56:17;41.20;;;21.63;;
11078;SDS011;5592;49.234;7.268;2023-03-03T05:58:43;51.87;;;21.70;;
11078;SDS011;5592;49.234;7.268;2023-03-03T06:01:09;52.57;;;23.40;;
11078;SDS011;5592;49.234;7.268;2023-03-03T06:03:35;50.70;;;21.90;;
11078;SDS011;5592;49.234;7.268;2023-03-03T06:06:00;52.60;;;23.13;;
11078;SDS011;5592;49.234;7.268;2023-03-03T06:08:26;47.80;;;20.30;;
11078;SDS011;5592;49.234;7.268;2023-03-03T06:10:53;44.47;;;22.97;;
11078;SDS011;5592;49.234;7.268;2023-03-03T06:13:18;49.17;;;20.87;;
11078;SDS011;5592;49.234;7.268;2023-03-03T06:15:44;39.13;;;20.10;;
11078;SDS011;5592;49.234;7.268;2023-03-03T06:18:10;48.23;;;20.87;;
11078;SDS011;5592;49.234;7.268;2023-03-03T06:20:35;50.00;;;21.33;;
11078;SDS011;5592;49.234;7.268;2023-03-03T06:23:02;46.80;;;22.03;;
11078;SDS011;5592;49.234;7.268;2023-03-03T06:25:31;44.80;;;21.30;;
11078;SDS011;5592;49.234;7.268;2023-03-03T06:27:59;51.30;;;21.77;;
11078;SDS011;5592;49.234;7.268;2023-03-03T06:30:25;46.77;;;21.50;;
11078;SDS011;5592;49.234;7.268;2023-03-03T06:32:52;43.77;;;19.77;;
11078;SDS011;5592;49.234;7.268;2023-03-03T06:35:20;44.73;;;20.90;;
11078;SDS011;5592;49.234;7.268;2023-03-03T06:37:45;37.67;;;20.00;;
11078;SDS011;5592;49.234;7.268;2023-03-03T06:40:11;37.87;;;19.50;;
11078;SDS011;5592;49.234;7.268;2023-03-03T06:42:37;46.93;;;21.33;;
11078;SDS011;5592;49.234;7.268;2023-03-03T06:45:03;47.43;;;22.10;;
11078;SDS011;5592;49.234;7.268;2023-03-03T06:47:28;46.70;;;22.20;;
11078;SDS011;5592;49.234;7.268;2023-03-03T06:49:55;42.07;;;21.33;;
11078;SDS011;5592;49.234;7.268;2023-03-03T06:52:22;48.13;;;24.40;;
11078;SDS011;5592;49.234;7.268;2023-03-03T06:54:50;52.30;;;25.13;;
11078;SDS011;5592;49.234;7.268;2023-03-03T06:57:22;53.47;;;23.43;;
11078;SDS011;5592;49.234;7.268;2023-03-03T06:59:52;47.23;;;22.97;;
11078;SDS011;5592;49.234;7.268;2023-03-03T07:02:20;42.47;;;20.87;;
11078;SDS011;5592;49.234;7.268;2023-03-03T07:04:46;37.33;;;21.00;;
11078;SDS011;5592;49.234;7.268;2023-03-03T07:07:16;38.17;;;19.80;;
11078;SDS011;5592;49.234;7.268;2023-03-03T07:09:45;40.80;;;20.03;;
11078;SDS011;5592;49.234;7.268;2023-03-03T07:12:14;38.80;;;19.87;;
11078;SDS011;5592;49.234;7.268;2023-03-03T07:14:46;35.17;;;19.17;;
11078;SDS011;5592;49.234;7.268;2023-03-03T07:17:19;36.60;;;19.60;;
11078;SDS011;5592;49.234;7.268;2023-03-03T07:19:46;36.53;;;18.77;;
11078;SDS011;5592;49.234;7.268;2023-03-03T07:22:15;28.03;;;17.33;;
11078;SDS011;5592;49.234;7.268;2023-03-03T07:24:44;25.00;;;16.30;;
11078;SDS011;5592;49.234;7.268;2023-03-03T07:27:18;36.37;;;17.90;;
11078;SDS011;5592;49.234;7.268;2023-03-03T07:29:48;30.23;;;17.40;;
11078;SDS011;5592;49.234;7.268;2023-03-03T07:32:20;33.87;;;18.47;;
11078;SDS011;5592;49.234;7.268;2023-03-03T07:35:24;35.93;;;18.03;;
11078;SDS011;5592;49.234;7.268;2023-03-03T07:37:57;31.90;;;17.90;;
11078;SDS011;5592;49.234;7.268;2023-03-03T07:40:33;32.40;;;19.37;;
11078;SDS011;5592;49.234;7.268;2023-03-03T07:48:36;32.20;;;18.87;;
11078;SDS011;5592;49.234;7.268;2023-03-03T07:51:10;32.27;;;18.80;;
11078;SDS011;5592;49.234;7.268;2023-03-03T07:53:40;29.67;;;16.87;;
11078;SDS011;5592;49.234;7.268;2023-03-03T07:56:26;25.87;;;15.97;;
11078;SDS011;5592;49.234;7.268;2023-03-03T07:58:54;27.00;;;16.93;;
11078;SDS011;5592;49.234;7.268;2023-03-03T08:07:08;27.07;;;14.77;;
11078;SDS011;5592;49.234;7.268;2023-03-03T08:14:47;25.20;;;15.00;;
11078;SDS011;5592;49.234;7.268;2023-03-03T08:17:23;27.27;;;16.67;;
11078;SDS011;5592;49.234;7.268;2023-03-03T08:20:00;21.30;;;15.50;;
11078;SDS011;5592;49.234;7.268;2023-03-03T08:22:33;21.83;;;15.30;;
11078;SDS011;5592;49.234;7.268;2023-03-03T08:25:00;26.33;;;15.67;;
11078;SDS011;5592;49.234;7.268;2023-03-03T08:27:26;25.23;;;16.83;;
11078;SDS011;5592;49.234;7.268;2023-03-03T08:29:52;24.20;;;15.50;;
11078;SDS011;5592;49.234;7.268;2023-03-03T08:32:17;25.27;;;15.10;;
11078;SDS011;5592;49.234;7.268;2023-03-03T08:34:46;22.80;;;15.43;;
11078;SDS011;5592;49.234;7.268;2023-03-03T08:37:12;22.70;;;15.27;;
11078;SDS011;5592;49.234;7.268;2023-03-03T08:39:37;23.47;;;15.63;;
11078;SDS011;5592;49.234;7.268;2023-03-03T08:42:03;21.50;;;15.90;;
11078;SDS011;5592;49.234;7.268;2023-03-03T08:44:29;27.03;;;16.53;;
11078;SDS011;5592;49.234;7.268;2023-03-03T08:46:54;21.83;;;14.73;;
11078;SDS011;5592;49.234;7.268;2023-03-03T08:49:20;28.97;;;15.33;;
11078;SDS011;5592;49.234;7.268;2023-03-03T08:51:46;24.30;;;15.87;;
11078;SDS011;5592;49.234;7.268;2023-03-03T08:54:11;23.63;;;16.07;;
11078;SDS011;5592;49.234;7.268;2023-03-03T08:56:37;22.90;;;15.70;;
11078;SDS011;5592;49.234;7.268;2023-03-03T08:59:03;20.67;;;15.23;;
11078;SDS011;5592;49.234;7.268;2023-03-03T09:01:31;23.20;;;14.63;;
11078;SDS011;5592;49.234;7.268;2023-03-03T09:03:57;22.23;;;14.80;;
11078;SDS011;5592;49.234;7.268;2023-03-03T09:06:23;22.07;;;14.97;;
11078;SDS011;5592;49.234;7.268;2023-03-03T09:08:48;19.40;;;13.67;;
11078;SDS011;5592;49.234;7.268;2023-03-03T09:11:15;20.50;;;14.87;;
11078;SDS011;5592;49.234;7.268;2023-03-03T09:13:48;25.20;;;16.70;;
11078;SDS011;5592;49.234;7.268;2023-03-03T09:16:17;21.23;;;14.90;;
11078;SDS011;5592;49.234;7.268;2023-03-03T09:18:44;21.30;;;15.70;;
11078;SDS011;5592;49.234;7.268;2023-03-03T09:21:29;23.27;;;16.80;;
11078;SDS011;5592;49.234;7.268;2023-03-03T09:23:58;19.90;;;15.83;;
11078;SDS011;5592;49.234;7.268;2023-03-03T09:28:55;20.53;;;15.20;;
11078;SDS011;5592;49.234;7.268;2023-03-03T09:34:00;21.57;;;15.93;;
11078;SDS011;5592;49.234;7.268;2023-03-03T09:36:37;24.70;;;16.40;;
11078;SDS011;5592;49.234;7.268;2023-03-03T09:42:01;23.10;;;16.13;;
11078;SDS011;5592;49.234;7.268;2023-03-03T09:44:39;24.53;;;15.97;;
11078;SDS011;5592;49.234;7.268;2023-03-03T09:57:24;24.23;;;15.87;;
11078;SDS011;5592;49.234;7.268;2023-03-03T10:00:15;21.17;;;14.20;;
11078;SDS011;5592;49.234;7.268;2023-03-03T10:03:07;20.53;;;14.60;;
11078;SDS011;5592;49.234;7.268;2023-03-03T10:05:39;19.07;;;14.00;;
11078;SDS011;5592;49.234;7.268;2023-03-03T10:08:16;21.23;;;15.80;;
11078;SDS011;5592;49.234;7.268;2023-03-03T10:11:12;26.10;;;15.00;;
11078;SDS011;5592;49.234;7.268;2023-03-03T10:33:04;22.90;;;14.93;;
11078;SDS011;5592;49.234;7.268;2023-03-03T11:11:46;24.60;;;15.63;;
11078;SDS011;5592;49.234;7.268;2023-03-03T11:14:46;20.67;;;14.40;;
11078;SDS011;5592;49.234;7.268;2023-03-03T11:19:52;21.40;;;15.00;;
11078;SDS011;5592;49.234;7.268;2023-03-03T11:22:31;23.67;;;15.63;;
11078;SDS011;5592;49.234;7.268;2023-03-03T11:30:54;23.23;;;14.20;;
11078;SDS011;5592;49.234;7.268;2023-03-03T11:36:31;22.13;;;14.63;;
11078;SDS011;5592;49.234;7.268;2023-03-03T11:39:19;21.97;;;14.43;;
11078;SDS011;5592;49.234;7.268;2023-03-03T11:49:47;23.27;;;15.60;;
11078;SDS011;5592;49.234;7.268;2023-03-03T11:52:31;24.93;;;15.67;;
11078;SDS011;5592;49.234;7.268;2023-03-03T11:55:36;21.90;;;14.90;;
11078;SDS011;5592;49.234;7.268;2023-03-03T11:58:11;25.57;;;14.30;;
11078;SDS011;5592;49.234;7.268;2023-03-03T12:06:37;30.50;;;16.27;;
11078;SDS011;5592;49.234;7.268;2023-03-03T12:12:13;23.77;;;14.93;;
11078;SDS011;5592;49.234;7.268;2023-03-03T12:15:05;21.77;;;15.20;;
11078;SDS011;5592;49.234;7.268;2023-03-03T12:25:42;25.73;;;15.03;;
11078;SDS011;5592;49.234;7.268;2023-03-03T12:28:54;22.00;;;15.17;;
11078;SDS011;5592;49.234;7.268;2023-03-03T12:31:19;27.23;;;14.87;;
11078;SDS011;5592;49.234;7.268;2023-03-03T12:34:34;24.73;;;15.10;;
11078;SDS011;5592;49.234;7.268;2023-03-03T12:37:26;27.87;;;16.00;;
11078;SDS011;5592;49.234;7.268;2023-03-03T12:40:18;26.87;;;16.27;;
11078;SDS011;5592;49.234;7.268;2023-03-03T12:48:08;26.37;;;15.50;;
11078;SDS011;5592;49.234;7.268;2023-03-03T12:50:47;27.27;;;15.13;;
11078;SDS011;5592;49.234;7.268;2023-03-03T12:56:12;25.93;;;15.80;;
11078;SDS011;5592;49.234;7.268;2023-03-03T13:04:18;23.73;;;14.20;;
11078;SDS011;5592;49.234;7.268;2023-03-03T13:06:51;26.60;;;16.00;;
11078;SDS011;5592;49.234;7.268;2023-03-03T13:09:44;25.03;;;15.90;;
11078;SDS011;5592;49.234;7.268;2023-03-03T13:15:11;24.73;;;15.57;;
11078;SDS011;5592;49.234;7.268;2023-03-03T13:23:20;31.00;;;17.20;;
11078;SDS011;5592;49.234;7.268;2023-03-03T13:31:32;26.43;;;16.20;;
11078;SDS011;5592;49.234;7.268;2023-03-03T13:34:16;27.27;;;15.07;;
11078;SDS011;5592;49.234;7.268;2023-03-03T13:36:52;25.13;;;16.27;;
11078;SDS011;5592;49.234;7.268;2023-03-03T13:39:32;23.63;;;16.70;;
11078;SDS011;5592;49.234;7.268;2023-03-03T13:42:07;30.10;;;15.60;;
11078;SDS011;5592;49.234;7.268;2023-03-03T13:44:46;25.17;;;16.97;;
11078;SDS011;5592;49.234;7.268;2023-03-03T13:47:17;25.70;;;16.87;;
11078;SDS011;5592;49.234;7.268;2023-03-03T13:52:25;25.37;;;15.93;;
11078;SDS011;5592;49.234;7.268;2023-03-03T13:55:05;27.00;;;16.90;;
11078;SDS011;5592;49.234;7.268;2023-03-03T13:57:43;26.47;;;16.50;;
11078;SDS011;5592;49.234;7.268;2023-03-03T14:04:13;25.57;;;16.17;;
11078;SDS011;5592;49.234;7.268;2023-03-03T14:06:18;31.13;;;16.73;;
11078;SDS011;5592;49.234;7.268;2023-03-03T14:14:31;30.93;;;17.53;;
11078;SDS011;5592;49.234;7.268;2023-03-03T14:20:33;39.07;;;17.40;;
11078;SDS011;5592;49.234;7.268;2023-03-03T14:23:40;27.60;;;16.50;;
11078;SDS011;5592;49.234;7.268;2023-03-03T14:28:29;29.20;;;17.40;;
11078;SDS011;5592;49.234;7.268;2023-03-03T14:31:19;27.80;;;17.53;;
11078;SDS011;5592;49.234;7.268;2023-03-03T14:36:43;32.00;;;16.70;;
11078;SDS011;5592;49.234;7.268;2023-03-03T14:45:01;31.10;;;17.30;;
11078;SDS011;5592;49.234;7.268;2023-03-03T14:47:54;27.30;;;17.03;;
11078;SDS011;5592;49.234;7.268;2023-03-03T14:50:55;30.17;;;16.67;;
11078;SDS011;5592;49.234;7.268;2023-03-03T14:53:22;26.00;;;16.73;;
11078;SDS011;5592;49.234;7.268;2023-03-03T14:55:55;32.80;;;18.77;;
11078;SDS011;5592;49.234;7.268;2023-03-03T15:01:50;30.57;;;18.20;;
11078;SDS011;5592;49.234;7.268;2023-03-03T15:04:41;26.97;;;16.67;;
11078;SDS011;5592;49.234;7.268;2023-03-03T15:07:29;27.50;;;16.87;;
11078;SDS011;5592;49.234;7.268;2023-03-03T15:09:59;32.83;;;18.03;;
11078;SDS011;5592;49.234;7.268;2023-03-03T15:22:45;28.77;;;16.67;;
11078;SDS011;5592;49.234;7.268;2023-03-03T15:27:50;31.20;;;18.30;;
11078;SDS011;5592;49.234;7.268;2023-03-03T15:30:36;30.10;;;16.63;;
11078;SDS011;5592;49.234;7.268;2023-03-03T15:33:12;28.10;;;16.57;;
11078;SDS011;5592;49.234;7.268;2023-03-03T15:35:47;30.57;;;17.23;;
11078;SDS011;5592;49.234;7.268;2023-03-03T15:55:12;29.40;;;17.17;;
11078;SDS011;5592;49.234;7.268;2023-03-03T16:03:31;29.97;;;15.70;;
11078;SDS011;5592;49.234;7.268;2023-03-03T16:06:14;31.17;;;16.40;;
11078;SDS011;5592;49.234;7.268;2023-03-03T16:08:57;27.60;;;17.10;;
11078;SDS011;5592;49.234;7.268;2023-03-03T16:25:33;26.90;;;15.13;;
11078;SDS011;5592;49.234;7.268;2023-03-03T16:30:51;26.40;;;15.20;;
11078;SDS011;5592;49.234;7.268;2023-03-03T16:36:26;28.60;;;15.97;;
11078;SDS011;5592;49.234;7.268;2023-03-03T16:38:59;26.60;;;14.43;;
11078;SDS011;5592;49.234;7.268;2023-03-03T16:44:15;29.07;;;15.07;;
11078;SDS011;5592;49.234;7.268;2023-03-03T16:47:04;32.93;;;15.80;;
11078;SDS011;5592;49.234;7.268;2023-03-03T16:49:52;27.90;;;15.30;;
11078;SDS011;5592;49.234;7.268;2023-03-03T16:52:42;25.87;;;14.80;;
11078;SDS011;5592;49.234;7.268;2023-03-03T16:56:31;27.73;;;15.80;;
11078;SDS011;5592;49.234;7.268;2023-03-03T16:58:49;29.53;;;15.47;;
11078;SDS011;5592;49.234;7.268;2023-03-03T17:01:22;31.57;;;15.90;;
11078;SDS011;5592;49.234;7.268;2023-03-03T17:03:59;24.30;;;15.13;;
11078;SDS011;5592;49.234;7.268;2023-03-03T17:06:51;27.10;;;15.10;;
11078;SDS011;5592;49.234;7.268;2023-03-03T17:12:03;23.80;;;14.03;;
11078;SDS011;5592;49.234;7.268;2023-03-03T17:17:38;29.07;;;16.20;;
11078;SDS011;5592;49.234;7.268;2023-03-03T17:25:40;32.30;;;15.40;;
11078;SDS011;5592;49.234;7.268;2023-03-03T17:38:59;28.07;;;15.13;;
11078;SDS011;5592;49.234;7.268;2023-03-03T17:44:29;27.20;;;14.80;;
11078;SDS011;5592;49.234;7.268;2023-03-03T17:55:28;30.27;;;15.40;;
11078;SDS011;5592;49.234;7.268;2023-03-03T18:17:14;24.90;;;14.90;;
11078;SDS011;5592;49.234;7.268;2023-03-03T18:20:10;37.10;;;15.73;;
11078;SDS011;5592;49.234;7.268;2023-03-03T18:22:45;32.70;;;16.00;;
11078;SDS011;5592;49.234;7.268;2023-03-03T18:25:16;26.10;;;14.20;;
11078;SDS011;5592;49.234;7.268;2023-03-03T18:27:46;26.57;;;14.77;;
11078;SDS011;5592;49.234;7.268;2023-03-03T18:38:53;31.77;;;15.37;;
11078;SDS011;5592;49.234;7.268;2023-03-03T18:41:21;27.97;;;16.00;;
11078;SDS011;5592;49.234;7.268;2023-03-03T18:43:54;33.10;;;17.10;;
11078;SDS011;5592;49.234;7.268;2023-03-03T18:48:56;31.63;;;15.73;;
11078;SDS011;5592;49.234;7.268;2023-03-03T18:54:04;31.23;;;16.30;;
11078;SDS011;5592;49.234;7.268;2023-03-03T19:07:29;33.50;;;15.63;;
11078;SDS011;5592;49.234;7.268;2023-03-03T19:12:52;28.93;;;16.13;;
11078;SDS011;5592;49.234;7.268;2023-03-03T19:20:38;28.77;;;16.43;;
11078;SDS011;5592;49.234;7.268;2023-03-03T19:23:13;27.60;;;14.30;;
11078;SDS011;5592;49.234;7.268;2023-03-03T19:25:45;29.63;;;15.50;;
11078;SDS011;5592;49.234;7.268;2023-03-03T19:28:45;27.40;;;15.90;;
11078;SDS011;5592;49.234;7.268;2023-03-03T19:34:20;28.57;;;15.03;;
11078;SDS011;5592;49.234;7.268;2023-03-03T19:42:33;28.70;;;15.13;;
11078;SDS011;5592;49.234;7.268;2023-03-03T19:48:04;39.10;;;17.40;;
11078;SDS011;5592;49.234;7.268;2023-03-03T19:53:27;34.70;;;17.07;;
11078;SDS011;5592;49.234;7.268;2023-03-03T20:15:46;40.00;;;19.47;;
11078;SDS011;5592;49.234;7.268;2023-03-03T20:24:09;41.27;;;18.70;;
11078;SDS011;5592;49.234;7.268;2023-03-03T20:27:13;38.50;;;18.83;;
11078;SDS011;5592;49.234;7.268;2023-03-03T20:32:11;38.40;;;18.80;;
11078;SDS011;5592;49.234;7.268;2023-03-03T20:34:58;42.77;;;18.50;;
11078;SDS011;5592;49.234;7.268;2023-03-03T20:43:06;33.90;;;17.73;;
11078;SDS011;5592;49.234;7.268;2023-03-03T21:05:15;44.17;;;21.43;;
11078;SDS011;5592;49.234;7.268;2023-03-03T21:07:57;37.33;;;19.50;;
11078;SDS011;5592;49.234;7.268;2023-03-03T21:10:32;44.00;;;19.57;;
11078;SDS011;5592;49.234;7.268;2023-03-03T21:16:14;42.80;;;20.50;;
11078;SDS011;5592;49.234;7.268;2023-03-03T21:18:57;45.27;;;20.30;;
11078;SDS011;5592;49.234;7.268;2023-03-03T21:21:31;53.47;;;21.90;;
11078;SDS011;5592;49.234;7.268;2023-03-03T21:24:04;49.30;;;21.10;;
11078;SDS011;5592;49.234;7.268;2023-03-03T21:29:26;42.10;;;20.90;;
11078;SDS011;5592;49.234;7.268;2023-03-03T21:31:57;51.70;;;24.20;;
11078;SDS011;5592;49.234;7.268;2023-03-03T21:36:55;63.47;;;24.67;;
11078;SDS011;5592;49.234;7.268;2023-03-03T21:39:32;52.67;;;24.47;;
11078;SDS011;5592;49.234;7.268;2023-03-03T21:47:02;56.73;;;25.03;;
11078;SDS011;5592;49.234;7.268;2023-03-03T21:49:29;53.93;;;24.57;;
11078;SDS011;5592;49.234;7.268;2023-03-03T21:51:54;58.53;;;25.17;;
11078;SDS011;5592;49.234;7.268;2023-03-03T21:54:21;54.10;;;25.20;;
11078;SDS011;5592;49.234;7.268;2023-03-03T21:56:47;48.47;;;24.97;;
11078;SDS011;5592;49.234;7.268;2023-03-03T21:59:14;51.00;;;23.80;;
11078;SDS011;5592;49.234;7.268;2023-03-03T22:01:40;55.90;;;26.37;;
11078;SDS011;5592;49.234;7.268;2023-03-03T22:04:05;47.13;;;22.30;;
11078;SDS011;5592;49.234;7.268;2023-03-03T22:06:31;60.93;;;26.60;;